Time;durP1;ratioP1;P1;durP2;ratioP2;P2;SDS_P1;SDS_P2;PMS_P1;PMS_P2;Temp;Humidity;BMP_temperature;BMP_pressure;BME280_temperature;BME280_humidity;BME280_pressure;Samples;Min_cycle;Max_cycle;Signal;HPM_P1;HPM_P2
2022/06/30 00:01:50;;;;;;;;;;;;;;;-146.27;100.00;64033.13;5113488;28;19935;-37
2022/06/30 00:04:15;;;;;;;;;;;;;;;-146.27;100.00;64033.13;5113209;28;20290;-38
2022/06/30 00:06:40;;;;;;;;;;;;;;;-146.27;100.00;64033.13;5112965;28;19912;-38
2022/06/30 00:09:06;;;;;;;;;;;;;;;-146.27;100.00;64033.13;5113220;28;19934;-43
2022/06/30 00:11:31;;;;;;;;;;;;;;;-146.27;100.00;64033.13;5113915;28;19950;-38
2022/06/30 00:13:57;;;;;;;;;;;;;;;-146.27;100.00;64033.13;5113417;28;20014;-41
2022/06/30 00:16:22;;;;;;;;;;;;;;;-146.27;100.00;64033.13;5113097;28;20432;-38
2022/06/30 00:18:48;;;;;;;;;;;;;;;-146.27;100.00;64033.13;5114222;28;19911;-39
2022/06/30 00:21:13;;;;;;;;;;;;;;;-146.27;100.00;64033.13;5113493;28;20379;-39
2022/06/30 00:23:38;;;;;;;;;;;;;;;-146.27;100.00;64033.13;5113761;28;19994;-38
2022/06/30 00:26:04;;;;;;;;;;;;;;;-146.27;100.00;64033.13;5100046;28;20295;-38
2022/06/30 00:28:29;;;;;;;;;;;;;;;-146.27;100.00;64033.13;5092584;28;19961;-38
2022/06/30 00:30:54;;;;;;;;;;;;;;;-146.27;100.00;64033.13;5092793;28;20103;-37
2022/06/30 00:33:20;;;;;;;;;;;;;;;-146.27;100.00;64033.13;5093076;28;19927;-37
2022/06/30 00:35:46;;;;;;;;;;;;;;;-146.27;100.00;64033.13;5092708;28;20356;-38
2022/06/30 00:38:11;;;;;;;;;;;;;;;-146.27;100.00;64033.13;5108170;28;20394;-38
2022/06/30 00:40:44;;;;;;;;;;;;;;;-146.27;100.00;64033.13;5113300;28;19912;-38
2022/06/30 00:43:09;;;;;;;;;;;;;;;-146.27;100.00;64033.13;5113208;28;20007;-38
2022/06/30 00:45:42;;;;;;;;;;;;;;;-146.27;100.00;64033.13;5111613;28;20027;-38
2022/06/30 00:48:08;;;;;;;;;;;;;;;-146.27;100.00;64033.13;5112932;28;20010;-38
2022/06/30 00:50:33;;;;;;;;;;;;;;;-146.27;100.00;64033.13;5113238;28;20318;-38
2022/06/30 00:53:01;;;;;;;;;;;;;;;-146.27;100.00;64033.13;5113029;28;20351;-37
2022/06/30 00:55:27;;;;;;;;;;;;;;;-146.27;100.00;64033.13;5111683;28;20366;-38
2022/06/30 00:57:54;;;;;;;;;;;;;;;-146.27;100.00;64033.13;5112591;28;19931;-38
2022/06/30 01:00:19;;;;;;;;;;;;;;;-146.27;100.00;64033.13;5112037;28;19922;-38
2022/06/30 01:02:45;;;;;;;;;;;;;;;-146.27;100.00;64033.13;5112599;28;19908;-38
2022/06/30 01:05:11;;;;;;;;;;;;;;;-146.27;100.00;64033.13;5111307;28;19939;-38
2022/06/30 01:07:38;;;;;;;;;;;;;;;-146.27;100.00;64033.13;5112486;28;19930;-38
2022/06/30 01:12:48;;;;;;;;;;;;;;;-146.27;100.00;64033.13;5112651;28;20015;-38
2022/06/30 01:15:18;;;;;;;;;;;;;;;-146.27;100.00;64033.13;5112179;28;20006;-39
2022/06/30 01:17:44;;;;;;;;;;;;;;;-146.27;100.00;64033.13;5112293;28;19916;-39
2022/06/30 01:20:10;;;;;;;;;;;;;;;-146.27;100.00;64033.13;5111018;28;19991;-38
2022/06/30 01:22:35;;;;;;;;;;;;;;;-146.27;100.00;64033.13;5112239;28;19998;-38
2022/06/30 01:25:01;;;;;;;;;;;;;;;-146.27;100.00;64033.13;5109063;28;19923;-38
2022/06/30 01:27:26;;;;;;;;;;;;;;;-146.27;100.00;64033.13;5092154;28;19916;-38
2022/06/30 01:29:51;;;;;;;;;;;;;;;-146.27;100.00;64033.13;5092364;28;20291;-37
2022/06/30 01:32:17;;;;;;;;;;;;;;;-146.27;100.00;64033.13;5091601;28;20277;-36
2022/06/30 01:34:42;;;;;;;;;;;;;;;-146.27;100.00;64033.13;5091867;28;20307;-37
2022/06/30 01:37:08;;;;;;;;;;;;;;;-146.27;100.00;64033.13;5098314;28;19919;-37
2022/06/30 01:39:33;;;;;;;;;;;;;;;-146.27;100.00;64033.13;5112316;28;19923;-37
2022/06/30 01:41:58;;;;;;;;;;;;;;;-146.27;100.00;64033.13;5112058;28;19919;-38
2022/06/30 01:44:24;;;;;;;;;;;;;;;-146.27;100.00;64033.13;5112020;28;19954;-38
2022/06/30 01:46:49;;;;;;;;;;;;;;;-146.27;100.00;64033.13;5112415;28;19985;-38
2022/06/30 01:49:15;;;;;;;;;;;;;;;-146.27;100.00;64033.13;5110631;28;20438;-38
2022/06/30 01:51:40;;;;;;;;;;;;;;;-146.27;100.00;64033.13;5111724;28;19912;-38
2022/06/30 01:54:08;;;;;;;;;;;;;;;-146.27;100.00;64033.13;5111246;28;20004;-38
2022/06/30 01:56:33;;;;;;;;;;;;;;;-146.27;100.00;64033.13;5111670;28;19915;-38
2022/06/30 01:58:58;;;;;;;;;;;;;;;-146.27;100.00;64033.13;5111803;28;20345;-38
2022/06/30 02:01:24;;;;;;;;;;;;;;;-146.27;100.00;64033.13;5111507;28;19912;-38
2022/06/30 02:03:49;;;;;;;;;;;;;;;-146.27;100.00;64033.13;5110952;28;19959;-38
2022/06/30 02:06:14;;;;;;;;;;;;;;;-146.27;100.00;64033.13;5110383;28;20393;-38
2022/06/30 02:08:40;;;;;;;;;;;;;;;-146.27;100.00;64033.13;5111364;28;19912;-38
2022/06/30 02:11:05;;;;;;;;;;;;;;;-146.27;100.00;64033.13;5110996;28;19969;-39
2022/06/30 02:13:30;;;;;;;;;;;;;;;-146.27;100.00;64033.13;5111002;28;20006;-37
2022/06/30 02:15:55;;;;;;;;;;;;;;;-146.27;100.00;64033.13;5110952;28;19960;-37
2022/06/30 02:18:21;;;;;;;;;;;;;;;-146.27;100.00;64033.13;5110972;28;20418;-38
2022/06/30 02:20:46;;;;;;;;;;;;;;;-146.27;100.00;64033.13;5111271;28;19919;-39
2022/06/30 02:23:12;;;;;;;;;;;;;;;-146.27;100.00;64033.13;5111538;28;19912;-38
2022/06/30 02:25:37;;;;;;;;;;;;;;;-146.27;100.00;64033.13;5102837;28;19920;-39
2022/06/30 02:28:05;;;;;;;;;;;;;;;-146.27;100.00;64033.13;5091403;28;19931;-39
2022/06/30 02:30:30;;;;;;;;;;;;;;;-146.27;100.00;64033.13;5091093;28;20016;-38
2022/06/30 02:32:55;;;;;;;;;;;;;;;-146.27;100.00;64033.13;5090908;28;19985;-38
2022/06/30 02:35:21;;;;;;;;;;;;;;;-146.27;100.00;64033.13;5090746;28;19920;-38
2022/06/30 02:37:46;;;;;;;;;;;;;;;-146.27;100.00;64033.13;5102741;28;20351;-38
2022/06/30 02:40:12;;;;;;;;;;;;;;;-146.27;100.00;64033.13;5111277;28;19969;-38
2022/06/30 02:42:37;;;;;;;;;;;;;;;-146.27;100.00;64033.13;5111476;28;19978;-37
2022/06/30 02:45:03;;;;;;;;;;;;;;;-146.27;100.00;64033.13;5111259;28;20028;-37
2022/06/30 02:47:29;;;;;;;;;;;;;;;-146.27;100.00;64033.13;5110740;28;20356;-38
2022/06/30 02:49:54;;;;;;;;;;;;;;;-146.27;100.00;64033.13;5111139;28;20521;-38
2022/06/30 02:52:19;;;;;;;;;;;;;;;-146.27;100.00;64033.13;5111348;28;19950;-37
2022/06/30 02:54:44;;;;;;;;;;;;;;;-146.27;100.00;64033.13;5111042;28;20006;-38
2022/06/30 02:57:10;;;;;;;;;;;;;;;-146.27;100.00;64033.13;5110069;28;20060;-38
2022/06/30 02:59:35;;;;;;;;;;;;;;;-146.27;100.00;64033.13;5110072;28;19912;-38
2022/06/30 03:02:00;;;;;;;;;;;;;;;-146.27;100.00;64033.13;5110933;28;19919;-38
2022/06/30 03:04:26;;;;;;;;;;;;;;;-146.27;100.00;64033.13;5110975;28;19912;-38
2022/06/30 03:06:51;;;;;;;;;;;;;;;-146.27;100.00;64033.13;5109504;28;19912;-39
2022/06/30 03:09:16;;;;;;;;;;;;;;;-146.27;100.00;64033.13;5112270;28;19911;-37
2022/06/30 03:11:42;;;;;;;;;;;;;;;-146.27;100.00;64033.13;5115007;28;19912;-38
2022/06/30 03:14:07;;;;;;;;;;;;;;;-146.27;100.00;64033.13;5114855;28;19923;-39
2022/06/30 03:16:32;;;;;;;;;;;;;;;-146.27;100.00;64033.13;5114987;28;19912;-38
2022/06/30 03:18:58;;;;;;;;;;;;;;;-146.27;100.00;64033.13;5114787;28;20299;-38
2022/06/30 03:21:23;;;;;;;;;;;;;;;-146.27;100.00;64033.13;5114629;28;19926;-37
2022/06/30 03:23:48;;;;;;;;;;;;;;;-146.27;100.00;64033.13;5114423;28;19934;-37
2022/06/30 03:26:14;;;;;;;;;;;;;;;-146.27;100.00;64033.13;5101347;28;19916;-38
2022/06/30 03:28:39;;;;;;;;;;;;;;;-146.27;100.00;64033.13;5092412;28;19942;-38
2022/06/30 03:31:05;;;;;;;;;;;;;;;-146.27;100.00;64033.13;5093465;28;19972;-38
2022/06/30 03:33:30;;;;;;;;;;;;;;;-146.27;100.00;64033.13;5094279;28;20075;-39
2022/06/30 03:35:56;;;;;;;;;;;;;;;-146.27;100.00;64033.13;5093368;28;19932;-38
2022/06/30 03:38:22;;;;;;;;;;;;;;;-146.27;100.00;64033.13;5111069;28;19911;-37
2022/06/30 03:40:47;;;;;;;;;;;;;;;-146.27;100.00;64033.13;5114333;28;19963;-38
2022/06/30 03:43:12;;;;;;;;;;;;;;;-146.27;100.00;64033.13;5114307;28;19973;-38
2022/06/30 03:45:37;;;;;;;;;;;;;;;-146.27;100.00;64033.13;5113666;28;19919;-37
2022/06/30 03:48:04;;;;;;;;;;;;;;;-146.27;100.00;64033.13;5113886;28;19915;-38
2022/06/30 03:50:30;;;;;;;;;;;;;;;-146.27;100.00;64033.13;5113677;28;19931;-38
2022/06/30 03:52:55;;;;;;;;;;;;;;;-146.27;100.00;64033.13;5114019;28;20011;-38
2022/06/30 03:55:21;;;;;;;;;;;;;;;-146.27;100.00;64033.13;5113732;28;20007;-38
2022/06/30 03:57:46;;;;;;;;;;;;;;;-146.27;100.00;64033.13;5114333;28;19914;-38
2022/06/30 04:00:12;;;;;;;;;;;;;;;-146.27;100.00;64033.13;5113976;28;19919;-38
2022/06/30 04:02:37;;;;;;;;;;;;;;;-146.27;100.00;64033.13;5113438;28;20381;-38
2022/06/30 04:05:03;;;;;;;;;;;;;;;-146.27;100.00;64033.13;5113213;28;20002;-37
2022/06/30 04:07:29;;;;;;;;;;;;;;;-146.27;100.00;64033.13;5113191;28;20275;-37
2022/06/30 04:09:54;;;;;;;;;;;;;;;-146.27;100.00;64033.13;5112940;28;19915;-38
2022/06/30 04:12:19;;;;;;;;;;;;;;;-146.27;100.00;64033.13;5112739;28;20006;-36
2022/06/30 04:14:44;;;;;;;;;;;;;;;-146.27;100.00;64033.13;5111629;28;20335;-37
2022/06/30 04:17:10;;;;;;;;;;;;;;;-146.27;100.00;64033.13;5111703;28;20356;-37
2022/06/30 04:19:37;;;;;;;;;;;;;;;-146.27;100.00;64033.13;5111774;28;19919;-37
2022/06/30 04:22:02;;;;;;;;;;;;;;;-146.27;100.00;64033.13;5112015;28;19919;-38
2022/06/30 04:24:27;;;;;;;;;;;;;;;-146.27;100.00;64033.13;5094794;28;19912;-38
2022/06/30 04:26:53;;;;;;;;;;;;;;;-146.27;100.00;64033.13;5092323;28;19939;-38
2022/06/30 04:29:18;;;;;;;;;;;;;;;-146.27;100.00;64033.13;5092961;28;19973;-38
2022/06/30 04:34:27;;;;;;;;;;;;;;;-146.27;100.00;64033.13;5092828;28;19966;-38
2022/06/30 04:36:52;;;;;;;;;;;;;;;-146.27;100.00;64033.13;5096980;28;19924;-37
2022/06/30 04:39:18;;;;;;;;;;;;;;;-146.27;100.00;64033.13;5112225;28;20298;-37
2022/06/30 04:41:43;;;;;;;;;;;;;;;-146.27;100.00;64033.13;5108590;28;19949;-37
2022/06/30 04:44:08;;;;;;;;;;;;;;;-146.27;100.00;64033.13;5091378;28;20111;-37
2022/06/30 04:46:34;;;;;;;;;;;;;;;-146.27;100.00;64033.13;5091789;28;19916;-37
2022/06/30 04:48:59;;;;;;;;;;;;;;;-146.27;100.00;64033.13;5091995;28;19965;-38
2022/06/30 04:51:24;;;;;;;;;;;;;;;-146.27;100.00;64033.13;5091785;28;20232;-38
2022/06/30 04:53:50;;;;;;;;;;;;;;;-146.27;100.00;64033.13;5091500;28;19916;-38
2022/06/30 04:56:17;;;;;;;;;;;;;;;-146.27;100.00;64033.13;5092073;28;19984;-38
2022/06/30 04:58:43;;;;;;;;;;;;;;;-146.27;100.00;64033.13;5091722;28;20387;-37
2022/06/30 05:01:08;;;;;;;;;;;;;;;-146.27;100.00;64033.13;5090140;28;20003;-37
2022/06/30 05:03:34;;;;;;;;;;;;;;;-146.27;100.00;64033.13;5092089;28;19962;-37
2022/06/30 05:05:59;;;;;;;;;;;;;;;-146.27;100.00;64033.13;5091121;28;19984;-37
2022/06/30 05:08:25;;;;;;;;;;;;;;;-146.27;100.00;64033.13;5093066;28;19919;-37
2022/06/30 05:10:50;;;;;;;;;;;;;;;-146.27;100.00;64033.13;5106032;28;19911;-38
2022/06/30 05:13:16;;;;;;;;;;;;;;;-146.27;100.00;64033.13;5094886;28;19916;-38
2022/06/30 05:15:42;;;;;;;;;;;;;;;-146.27;100.00;64033.13;5106189;28;19912;-38
2022/06/30 05:18:08;;;;;;;;;;;;;;;-146.27;100.00;64033.13;5090690;28;19919;-37
2022/06/30 05:20:33;;;;;;;;;;;;;;;-146.27;100.00;64033.13;5090791;28;20368;-38
2022/06/30 05:22:58;;;;;;;;;;;;;;;-146.27;100.00;64033.13;5091407;28;20006;-38
2022/06/30 05:28:08;;;;;;;;;;;;;;;-146.27;100.00;64033.13;5090217;28;20370;-37
2022/06/30 05:30:33;;;;;;;;;;;;;;;-146.27;100.00;64033.13;5090252;28;19912;-37
2022/06/30 05:32:58;;;;;;;;;;;;;;;-146.27;100.00;64033.13;5090236;28;20011;-37
2022/06/30 05:35:24;;;;;;;;;;;;;;;-146.27;100.00;64033.13;5089434;28;19991;-38
2022/06/30 05:37:49;;;;;;;;;;;;;;;-146.27;100.00;64033.13;5100976;28;19926;-38
2022/06/30 05:40:15;;;;;;;;;;;;;;;-146.27;100.00;64033.13;5109517;28;19923;-49
2022/06/30 05:42:40;;;;;;;;;;;;;;;-146.27;100.00;64033.13;5110345;28;19911;-52
2022/06/30 05:45:06;;;;;;;;;;;;;;;-146.27;100.00;64033.13;5110322;28;19918;-50
2022/06/30 05:47:31;;;;;;;;;;;;;;;-146.27;100.00;64033.13;5110107;28;19912;-49
2022/06/30 05:49:56;;;;;;;;;;;;;;;-146.27;100.00;64033.13;5110258;28;19943;-49
2022/06/30 05:52:21;;;;;;;;;;;;;;;-146.27;100.00;64033.13;5111121;28;20343;-52
2022/06/30 05:54:47;;;;;;;;;;;;;;;-146.27;100.00;64033.13;5110976;28;19915;-50
2022/06/30 05:57:12;;;;;;;;;;;;;;;-146.27;100.00;64033.13;5111593;28;19912;-49
2022/06/30 05:59:37;;;;;;;;;;;;;;;-146.27;100.00;64033.13;5111175;28;20367;-50
2022/06/30 06:02:03;;;;;;;;;;;;;;;-146.27;100.00;64033.13;5100924;28;19949;-51
2022/06/30 06:04:28;;;;;;;;;;;;;;;-146.27;100.00;64033.13;5090626;28;19912;-49
2022/06/30 06:06:53;;;;;;;;;;;;;;;-146.27;100.00;64033.13;5090625;28;20401;-50
2022/06/30 06:09:19;;;;;;;;;;;;;;;-146.27;100.00;64033.13;5090206;28;19913;-50
2022/06/30 06:11:44;;;;;;;;;;;;;;;-146.27;100.00;64033.13;5090740;28;20386;-51
2022/06/30 06:14:10;;;;;;;;;;;;;;;-146.27;100.00;64033.13;5090144;28;19955;-50
2022/06/30 06:16:35;;;;;;;;;;;;;;;-146.27;100.00;64033.13;5090761;28;19998;-50
2022/06/30 06:19:00;;;;;;;;;;;;;;;-146.27;100.00;64033.13;5090623;28;19912;-50
2022/06/30 06:21:26;;;;;;;;;;;;;;;-146.27;100.00;64033.13;5089920;28;19924;-52
2022/06/30 06:23:52;;;;;;;;;;;;;;;-146.27;100.00;64033.13;5090242;28;20244;-48
2022/06/30 06:26:17;;;;;;;;;;;;;;;-146.27;100.00;64033.13;5090014;28;19911;-49
2022/06/30 06:31:26;;;;;;;;;;;;;;;-146.27;100.00;64033.13;5090215;28;19920;-50
2022/06/30 06:33:52;;;;;;;;;;;;;;;-146.27;100.00;64033.13;5090172;28;20365;-51
2022/06/30 06:36:17;;;;;;;;;;;;;;;-146.27;100.00;64033.13;5090016;28;19932;-50
2022/06/30 06:38:42;;;;;;;;;;;;;;;-146.27;100.00;64033.13;5110137;28;19951;-52
2022/06/30 06:41:08;;;;;;;;;;;;;;;-146.27;100.00;64033.13;5110426;28;19980;-52
2022/06/30 06:43:33;;;;;;;;;;;;;;;-146.27;100.00;64033.13;5111415;28;19977;-50
2022/06/30 06:45:59;;;;;;;;;;;;;;;-146.27;100.00;64033.13;5115208;28;19911;-51
2022/06/30 06:48:24;;;;;;;;;;;;;;;-146.27;100.00;64033.13;5114632;28;19911;-52
2022/06/30 06:50:50;;;;;;;;;;;;;;;-146.27;100.00;64033.13;5114353;28;19920;-49
2022/06/30 06:53:15;;;;;;;;;;;;;;;-146.27;100.00;64033.13;5114231;28;19915;-49
2022/06/30 06:55:40;;;;;;;;;;;;;;;-146.27;100.00;64033.13;5114668;28;19920;-51
2022/06/30 06:58:08;;;;;;;;;;;;;;;-146.27;100.00;64033.13;5114385;28;20252;-49
2022/06/30 07:00:34;;;;;;;;;;;;;;;-146.27;100.00;64033.13;5114635;28;19918;-49
2022/06/30 07:02:59;;;;;;;;;;;;;;;-146.27;100.00;64033.13;5096052;28;19916;-49
2022/06/30 07:05:24;;;;;;;;;;;;;;;-146.27;100.00;64033.13;5094301;28;20405;-52
2022/06/30 07:07:57;;;;;;;;;;;;;;;-146.27;100.00;64033.13;5094415;28;19924;-52
2022/06/30 07:10:22;;;;;;;;;;;;;;;-146.27;100.00;64033.13;5094155;28;19919;-52
2022/06/30 07:12:47;;;;;;;;;;;;;;;-146.27;100.00;64033.13;5093838;28;19912;-51
2022/06/30 07:15:13;;;;;;;;;;;;;;;-146.27;100.00;64033.13;5093357;28;19916;-51
2022/06/30 07:17:38;;;;;;;;;;;;;;;-146.27;100.00;64033.13;5094127;28;20089;-52
2022/06/30 07:20:04;;;;;;;;;;;;;;;-146.27;100.00;64033.13;5093960;28;20372;-52
2022/06/30 07:22:29;;;;;;;;;;;;;;;-146.27;100.00;64033.13;5093726;28;19975;-52
2022/06/30 07:24:54;;;;;;;;;;;;;;;-146.27;100.00;64033.13;5093059;28;19962;-52
2022/06/30 07:27:20;;;;;;;;;;;;;;;-146.27;100.00;64033.13;5093909;28;19912;-53
2022/06/30 07:29:45;;;;;;;;;;;;;;;-146.27;100.00;64033.13;5093607;28;19955;-50
2022/06/30 07:32:11;;;;;;;;;;;;;;;-146.27;100.00;64033.13;5093671;28;20361;-52
2022/06/30 07:34:36;;;;;;;;;;;;;;;-146.27;100.00;64033.13;5093369;28;19974;-51
2022/06/30 07:37:02;;;;;;;;;;;;;;;-146.27;100.00;64033.13;5099514;28;20297;-51
2022/06/30 07:39:27;;;;;;;;;;;;;;;-146.27;100.00;64033.13;5114028;28;19912;-50
2022/06/30 07:41:52;;;;;;;;;;;;;;;-146.27;100.00;64033.13;5114147;28;20307;-52
2022/06/30 07:44:18;;;;;;;;;;;;;;;-146.27;100.00;64033.13;5113718;28;19968;-51
2022/06/30 07:46:43;;;;;;;;;;;;;;;-146.27;100.00;64033.13;5098467;28;20065;-50
2022/06/30 07:49:08;;;;;;;;;;;;;;;-146.27;100.00;64033.13;5096238;28;20237;-52
2022/06/30 07:51:34;;;;;;;;;;;;;;;-146.27;100.00;64033.13;5106743;28;19916;-51
2022/06/30 07:53:59;;;;;;;;;;;;;;;-146.27;100.00;64033.13;5095997;28;19923;-51
2022/06/30 07:56:24;;;;;;;;;;;;;;;-146.27;100.00;64033.13;5108926;28;19920;-52
2022/06/30 07:58:49;;;;;;;;;;;;;;;-146.27;100.00;64033.13;5100239;28;20390;-51
2022/06/30 08:01:17;;;;;;;;;;;;;;;-146.27;100.00;64033.13;5102190;28;20371;-52
2022/06/30 08:03:42;;;;;;;;;;;;;;;-146.27;100.00;64033.13;5107829;28;20013;-51
2022/06/30 08:06:07;;;;;;;;;;;;;;;-146.27;100.00;64033.13;5096199;28;20362;-50
2022/06/30 08:08:33;;;;;;;;;;;;;;;-146.27;100.00;64033.13;5108398;28;19944;-52
2022/06/30 08:10:58;;;;;;;;;;;;;;;-146.27;100.00;64033.13;5101578;28;19992;-50
2022/06/30 08:13:24;;;;;;;;;;;;;;;-146.27;100.00;64033.13;5100699;28;20435;-52
2022/06/30 08:15:49;;;;;;;;;;;;;;;-146.27;100.00;64033.13;5108103;28;20017;-51
2022/06/30 08:18:15;;;;;;;;;;;;;;;-146.27;100.00;64033.13;5095349;28;19912;-52
2022/06/30 08:20:40;;;;;;;;;;;;;;;-146.27;100.00;64033.13;5106559;28;20256;-52
2022/06/30 08:23:05;;;;;;;;;;;;;;;-146.27;100.00;64033.13;5102121;28;20018;-53
2022/06/30 08:25:31;;;;;;;;;;;;;;;-146.27;100.00;64033.13;5103899;28;19916;-51
2022/06/30 08:27:56;;;;;;;;;;;;;;;-146.27;100.00;64033.13;5102095;28;20073;-52
2022/06/30 08:30:23;;;;;;;;;;;;;;;-146.27;100.00;64033.13;5101416;28;19912;-51
2022/06/30 08:32:48;;;;;;;;;;;;;;;-146.27;100.00;64033.13;5094787;28;20402;-51
2022/06/30 08:35:14;;;;;;;;;;;;;;;-146.27;100.00;64033.13;5092455;28;19923;-51
2022/06/30 08:37:39;;;;;;;;;;;;;;;-146.27;100.00;64033.13;5092766;28;19939;-50
2022/06/30 08:42:50;;;;;;;;;;;;;;;-146.27;100.00;64033.13;5089970;28;19942;-52
2022/06/30 08:45:19;;;;;;;;;;;;;;;-146.27;100.00;64033.13;5092189;28;20370;-51
2022/06/30 08:47:46;;;;;;;;;;;;;;;-146.27;100.00;64033.13;5092212;28;19916;-53
2022/06/30 08:50:13;;;;;;;;;;;;;;;-146.27;100.00;64033.13;5091568;28;19919;-54
2022/06/30 08:52:46;;;;;;;;;;;;;;;-146.27;100.00;64033.13;5092409;28;19920;-52
2022/06/30 08:55:12;;;;;;;;;;;;;;;-146.27;100.00;64033.13;5092075;28;19916;-51
2022/06/30 08:57:40;;;;;;;;;;;;;;;-146.27;100.00;64033.13;5092480;28;19913;-52
2022/06/30 09:00:06;;;;;;;;;;;;;;;-146.27;100.00;64033.13;5091954;28;19942;-51
2022/06/30 09:02:31;;;;;;;;;;;;;;;-146.27;100.00;64033.13;5092343;28;19916;-52
2022/06/30 09:04:56;;;;;;;;;;;;;;;-146.27;100.00;64033.13;5091774;28;19976;-51
2022/06/30 09:07:22;;;;;;;;;;;;;;;-146.27;100.00;64033.13;5090306;28;19916;-51
2022/06/30 09:09:47;;;;;;;;;;;;;;;-146.27;100.00;64033.13;5100344;28;19927;-51
2022/06/30 09:12:14;;;;;;;;;;;;;;;-146.27;100.00;64033.13;5092351;28;19916;-51
2022/06/30 09:14:40;;;;;;;;;;;;;;;-146.27;100.00;64033.13;5089995;28;20049;-51
2022/06/30 09:17:16;;;;;;;;;;;;;;;-146.27;100.00;64033.13;5090274;28;20023;-52
2022/06/30 09:20:13;;;;;;;;;;;;;;;-146.27;100.00;64033.13;5090448;28;19970;-51
2022/06/30 09:22:39;;;;;;;;;;;;;;;-146.27;100.00;64033.13;5083454;28;19923;-54
2022/06/30 09:25:06;;;;;;;;;;;;;;;-146.27;100.00;64033.13;5096198;28;19919;-54
2022/06/30 09:27:47;;;;;;;;;;;;;;;-146.27;100.00;64033.13;5098798;28;19923;-52
2022/06/30 09:30:15;;;;;;;;;;;;;;;-146.27;100.00;64033.13;5091655;28;19916;-53
2022/06/30 09:32:45;;;;;;;;;;;;;;;-146.27;100.00;64033.13;5091433;28;19912;-54
2022/06/30 09:35:11;;;;;;;;;;;;;;;-146.27;100.00;64033.13;5091199;28;19946;-51
2022/06/30 09:37:36;;;;;;;;;;;;;;;-146.27;100.00;64033.13;5102144;28;19920;-50
2022/06/30 09:40:03;;;;;;;;;;;;;;;-146.27;100.00;64033.13;5110548;28;20302;-51
2022/06/30 09:42:41;;;;;;;;;;;;;;;-146.27;100.00;64033.13;5110322;28;19912;-51
2022/06/30 09:45:08;;;;;;;;;;;;;;;-146.27;100.00;64033.13;5110710;28;19912;-53
2022/06/30 09:47:34;;;;;;;;;;;;;;;-146.27;100.00;64033.13;5110698;28;20367;-52
2022/06/30 09:50:01;;;;;;;;;;;;;;;-146.27;100.00;64033.13;5110938;28;19912;-53
2022/06/30 09:52:26;;;;;;;;;;;;;;;-146.27;100.00;64033.13;5109368;28;19946;-53
2022/06/30 09:55:06;;;;;;;;;;;;;;;-146.27;100.00;64033.13;5108842;28;19963;-52
2022/06/30 09:57:35;;;;;;;;;;;;;;;-146.27;100.00;64033.13;5109124;28;20018;-49
2022/06/30 10:00:04;;;;;;;;;;;;;;;-146.27;100.00;64033.13;5109077;28;19962;-50
2022/06/30 10:02:30;;;;;;;;;;;;;;;-146.27;100.00;64033.13;5109540;28;19968;-50
2022/06/30 10:04:56;;;;;;;;;;;;;;;-146.27;100.00;64033.13;5108696;28;19912;-52
2022/06/30 10:07:22;;;;;;;;;;;;;;;-146.27;100.00;64033.13;5110229;28;20290;-51
2022/06/30 10:09:51;;;;;;;;;;;;;;;-146.27;100.00;64033.13;5110811;28;19911;-49
2022/06/30 10:12:20;;;;;;;;;;;;;;;-146.27;100.00;64033.13;5110762;28;20375;-50
2022/06/30 10:14:47;;;;;;;;;;;;;;;-146.27;100.00;64033.13;5105553;28;19916;-51
2022/06/30 10:17:18;;;;;;;;;;;;;;;-146.27;100.00;64033.13;5088871;28;20362;-52
2022/06/30 10:19:44;;;;;;;;;;;;;;;-146.27;100.00;64033.13;5090697;28;20002;-52
2022/06/30 10:22:10;;;;;;;;;;;;;;;-146.27;100.00;64033.13;5090515;28;19912;-52
2022/06/30 10:24:35;;;;;;;;;;;;;;;-146.27;100.00;64033.13;5090001;28;19912;-52
2022/06/30 10:27:13;;;;;;;;;;;;;;;-146.27;100.00;64033.13;5090108;28;20284;-52
2022/06/30 10:29:46;;;;;;;;;;;;;;;-146.27;100.00;64033.13;5090518;28;19912;-51
2022/06/30 10:32:12;;;;;;;;;;;;;;;-146.27;100.00;64033.13;5090343;28;19912;-52
2022/06/30 10:34:43;;;;;;;;;;;;;;;-146.27;100.00;64033.13;5089917;28;19943;-50
2022/06/30 10:37:08;;;;;;;;;;;;;;;-146.27;100.00;64033.13;5097093;28;20018;-52
2022/06/30 10:39:46;;;;;;;;;;;;;;;-146.27;100.00;64033.13;5110891;28;19955;-52
2022/06/30 10:42:31;;;;;;;;;;;;;;;-146.27;100.00;64033.13;5111217;28;19912;-52
2022/06/30 10:44:56;;;;;;;;;;;;;;;-146.27;100.00;64033.13;5110489;28;19911;-52
2022/06/30 10:47:21;;;;;;;;;;;;;;;-146.27;100.00;64033.13;5110576;28;19912;-52
2022/06/30 10:49:53;;;;;;;;;;;;;;;-146.27;100.00;64033.13;5110821;28;20380;-52
2022/06/30 10:52:25;;;;;;;;;;;;;;;-146.27;100.00;64033.13;5110648;28;19934;-52
2022/06/30 10:54:59;;;;;;;;;;;;;;;-146.27;100.00;64033.13;5110447;28;19942;-52
2022/06/30 10:57:24;;;;;;;;;;;;;;;-146.27;100.00;64033.13;5110605;28;19912;-51
2022/06/30 10:59:49;;;;;;;;;;;;;;;-146.27;100.00;64033.13;5110422;28;20309;-52
2022/06/30 11:02:22;;;;;;;;;;;;;;;-146.27;100.00;64033.13;5110034;28;20367;-53
2022/06/30 11:04:49;;;;;;;;;;;;;;;-146.27;100.00;64033.13;5110500;28;19919;-51
2022/06/30 11:07:24;;;;;;;;;;;;;;;-146.27;100.00;64033.13;5110583;28;19972;-52
2022/06/30 11:09:55;;;;;;;;;;;;;;;-146.27;100.00;64033.13;5110381;28;19919;-52
2022/06/30 11:12:29;;;;;;;;;;;;;;;-146.27;100.00;64033.13;5110114;28;19919;-52
2022/06/30 11:14:56;;;;;;;;;;;;;;;-146.27;100.00;64033.13;5104412;28;19931;-51
2022/06/30 11:17:23;;;;;;;;;;;;;;;-146.27;100.00;64033.13;5090131;28;19935;-51
2022/06/30 11:19:59;;;;;;;;;;;;;;;-146.27;100.00;64033.13;5090276;28;19916;-51
2022/06/30 11:22:25;;;;;;;;;;;;;;;-146.27;100.00;64033.13;5090321;28;20009;-48
2022/06/30 11:24:50;;;;;;;;;;;;;;;-146.27;100.00;64033.13;5089742;28;19918;-51
2022/06/30 11:27:21;;;;;;;;;;;;;;;-146.27;100.00;64033.13;5089574;28;19916;-51
2022/06/30 11:29:47;;;;;;;;;;;;;;;-146.27;100.00;64033.13;5089607;28;19918;-50
2022/06/30 11:32:12;;;;;;;;;;;;;;;-146.27;100.00;64033.13;5093707;28;20019;-49
2022/06/30 11:34:40;;;;;;;;;;;;;;;-146.27;100.00;64033.13;5093766;28;19920;-51
2022/06/30 11:37:06;;;;;;;;;;;;;;;-146.27;100.00;64033.13;5100681;28;20387;-51
2022/06/30 11:39:31;;;;;;;;;;;;;;;-146.27;100.00;64033.13;5114244;28;19919;-49
2022/06/30 11:42:01;;;;;;;;;;;;;;;-146.27;100.00;64033.13;5115206;28;20060;-52
2022/06/30 11:44:34;;;;;;;;;;;;;;;-146.27;100.00;64033.13;5114940;28;19939;-53
2022/06/30 11:46:59;;;;;;;;;;;;;;;-146.27;100.00;64033.13;5114461;28;19957;-52
2022/06/30 11:49:27;;;;;;;;;;;;;;;-146.27;100.00;64033.13;5114592;28;19958;-51
2022/06/30 11:51:53;;;;;;;;;;;;;;;-146.27;100.00;64033.13;5113644;28;19933;-53
2022/06/30 11:54:21;;;;;;;;;;;;;;;-146.27;100.00;64033.13;5096470;28;19916;-53
2022/06/30 11:56:52;;;;;;;;;;;;;;;-146.27;100.00;64033.13;5091532;28;20341;-53
2022/06/30 11:59:17;;;;;;;;;;;;;;;-146.27;100.00;64033.13;5092796;28;19912;-50
2022/06/30 12:01:58;;;;;;;;;;;;;;;-146.27;100.00;64033.13;5092512;28;20371;-52
2022/06/30 12:04:23;;;;;;;;;;;;;;;-146.27;100.00;64033.13;5090903;28;19939;-52
2022/06/30 12:06:48;;;;;;;;;;;;;;;-146.27;100.00;64033.13;5092253;28;19912;-51
2022/06/30 12:09:13;;;;;;;;;;;;;;;-146.27;100.00;64033.13;5092432;28;19912;-53
2022/06/30 12:11:39;;;;;;;;;;;;;;;-146.27;100.00;64033.13;5092017;28;19942;-51
2022/06/30 12:14:04;;;;;;;;;;;;;;;-146.27;100.00;64033.13;5092102;28;19931;-51
2022/06/30 12:16:30;;;;;;;;;;;;;;;-146.27;100.00;64033.13;5092362;28;19912;-53
2022/06/30 12:18:55;;;;;;;;;;;;;;;-146.27;100.00;64033.13;5092667;28;19912;-51
2022/06/30 12:21:21;;;;;;;;;;;;;;;-146.27;100.00;64033.13;5092362;28;20458;-52
2022/06/30 12:23:48;;;;;;;;;;;;;;;-146.27;100.00;64033.13;5091904;28;19930;-53
2022/06/30 12:26:14;;;;;;;;;;;;;;;-146.27;100.00;64033.13;5092499;28;20319;-52
2022/06/30 12:28:43;;;;;;;;;;;;;;;-146.27;100.00;64033.13;5092444;28;19919;-52